Time;durP1;ratioP1;P1;durP2;ratioP2;P2;SDS_P1;SDS_P2;PMS_P1;PMS_P2;Temp;Humidity;BMP_temperature;BMP_pressure;BME280_temperature;BME280_humidity;BME280_pressure;Samples;Min_cycle;Max_cycle;Signal;HPM_P1;HPM_P2
2022/01/21 00:00:16;;;;;;;5.68;1.30;;;;;;;-0.45;91.86;101825.81;5183037;28;20789;-77
2022/01/21 00:02:46;;;;;;;4.43;1.45;;;;;;;-0.54;92.88;101831.56;5183688;28;20091;-77
2022/01/21 00:05:18;;;;;;;6.63;1.40;;;;;;;-0.50;93.04;101832.53;5185432;28;20041;-77
2022/01/21 00:07:49;;;;;;;5.63;1.23;;;;;;;-0.53;93.21;101840.16;5185237;28;20026;-77
2022/01/21 00:10:19;;;;;;;8.40;1.20;;;;;;;-0.61;93.92;101839.03;5185760;28;20043;-77
2022/01/21 00:12:52;;;;;;;13.40;1.58;;;;;;;-0.48;93.68;101836.00;5184347;28;20112;-77
2022/01/21 00:15:23;;;;;;;8.90;1.25;;;;;;;-0.53;93.42;101833.31;5186235;28;20030;-77
2022/01/21 00:17:53;;;;;;;7.60;1.13;;;;;;;-0.47;93.80;101840.31;5182470;28;20060;-77
2022/01/21 00:31:39;;;;;;;7.30;1.40;;;;;;;-0.67;94.07;101851.69;5187258;28;20124;-77
2022/01/21 00:34:09;;;;;;;8.52;1.50;;;;;;;-0.67;94.17;101852.59;5191858;28;20109;-77
2022/01/21 00:36:39;;;;;;;10.00;1.45;;;;;;;-0.54;94.15;101853.81;5192056;28;20037;-77
2022/01/21 00:39:12;;;;;;;8.80;1.63;;;;;;;-0.53;93.16;101858.13;5192327;28;20032;-77
2022/01/21 00:41:54;;;;;;;12.60;1.58;;;;;;;-0.64;93.89;101859.50;5190392;28;20037;-77
2022/01/21 00:44:25;;;;;;;8.68;1.13;;;;;;;-0.65;93.90;101853.50;5172105;28;20021;-77
2022/01/21 00:46:55;;;;;;;8.50;1.20;;;;;;;-0.69;93.60;101856.78;5183633;28;20399;-77
2022/01/21 00:49:25;;;;;;;5.03;1.40;;;;;;;-0.70;94.45;101856.75;5189785;28;20458;-77
2022/01/21 00:51:55;;;;;;;10.07;1.50;;;;;;;-0.67;94.61;101859.41;5192556;28;20056;-76
2022/01/21 00:54:26;;;;;;;10.85;1.77;;;;;;;-0.73;94.60;101848.97;5189012;28;20076;-77
2022/01/21 00:56:56;;;;;;;7.82;1.58;;;;;;;-0.77;94.77;101858.25;5193170;28;20078;-77
2022/01/21 00:59:26;;;;;;;16.98;1.90;;;;;;;-0.64;94.58;101854.34;5180709;28;20037;-77
2022/01/21 01:01:57;;;;;;;9.65;2.08;;;;;;;-0.71;94.52;101863.56;5189111;28;20431;-76
2022/01/21 01:04:27;;;;;;;11.98;2.20;;;;;;;-0.77;95.07;101868.53;5188769;28;20388;-77
2022/01/21 01:06:57;;;;;;;9.10;1.75;;;;;;;-0.94;95.15;101867.13;5192500;28;20036;-77
2022/01/21 01:09:27;;;;;;;9.73;1.83;;;;;;;-0.98;96.20;101875.56;5189733;28;20029;-78
2022/01/21 01:20:08;;;;;;;7.85;1.40;;;;;;;-0.90;96.55;101865.53;5188352;28;20029;-78
2022/01/21 01:22:54;;;;;;;5.90;1.45;;;;;;;-0.86;96.35;101862.25;5168552;28;20503;-77
2022/01/21 01:28:13;;;;;;;9.25;1.77;;;;;;;-0.83;97.55;101870.91;5186696;28;20177;-78
2022/01/21 01:30:43;;;;;;;8.10;1.20;;;;;;;-0.83;97.89;101863.22;5183641;28;20476;-77
2022/01/21 01:33:21;;;;;;;6.47;1.35;;;;;;;-0.85;97.67;101866.56;5189573;28;20022;-77
2022/01/21 01:35:52;;;;;;;9.82;1.58;;;;;;;-0.85;97.84;101867.44;5193008;28;20021;-77
2022/01/21 01:41:31;;;;;;;8.88;1.65;;;;;;;-0.82;98.09;101861.50;5168775;28;20037;-77
2022/01/21 01:49:41;;;;;;;8.18;1.38;;;;;;;-1.08;98.74;101855.56;5190413;28;20045;-77
2022/01/21 01:52:14;;;;;;;7.60;1.25;;;;;;;-0.91;99.16;101861.25;5189962;28;20033;-78
2022/01/21 01:54:49;;;;;;;8.38;1.77;;;;;;;-1.07;97.38;101859.03;5191642;28;20029;-78
2022/01/21 01:57:19;;;;;;;7.72;1.55;;;;;;;-1.11;99.00;101854.59;5189183;28;20380;-79
2022/01/21 01:59:50;;;;;;;19.85;2.00;;;;;;;-1.10;99.42;101856.38;5179704;28;20037;-77
2022/01/21 02:02:20;;;;;;;8.93;1.60;;;;;;;-1.11;99.25;101852.91;5188029;28;20064;-79
2022/01/21 02:04:51;;;;;;;5.10;1.40;;;;;;;-0.92;100.00;101851.81;5190465;28;20395;-77
2022/01/21 02:07:21;;;;;;;9.20;1.45;;;;;;;-0.96;100.00;101853.41;5188889;28;20057;-77
2022/01/21 02:09:51;;;;;;;7.50;1.60;;;;;;;-1.05;100.00;101849.69;5192190;28;20040;-78
2022/01/21 02:12:21;;;;;;;7.55;1.98;;;;;;;-1.11;100.00;101836.66;5187880;28;20164;-77
2022/01/21 02:14:54;;;;;;;9.15;1.50;;;;;;;-1.07;100.00;101830.81;5188114;28;20033;-77
2022/01/21 02:22:48;;;;;;;9.13;1.55;;;;;;;-1.05;100.00;101834.28;5191636;28;20052;-78
2022/01/21 02:25:19;;;;;;;12.27;2.17;;;;;;;-1.01;100.00;101837.00;5188841;28;20026;-78
2022/01/21 02:27:53;;;;;;;9.85;1.98;;;;;;;-0.93;100.00;101834.69;5174586;28;20324;-78
2022/01/21 02:30:24;;;;;;;7.43;1.50;;;;;;;-0.97;100.00;101832.81;5185880;28;20171;-78
2022/01/21 02:32:57;;;;;;;8.30;1.85;;;;;;;-0.98;100.00;101841.34;5184972;28;20032;-77
2022/01/21 02:35:27;;;;;;;10.70;1.63;;;;;;;-0.95;100.00;101836.28;5191268;28;20025;-77
2022/01/21 02:37:58;;;;;;;8.20;1.80;;;;;;;-1.05;100.00;101834.28;5189181;28;20072;-77
2022/01/21 02:40:28;;;;;;;9.60;1.73;;;;;;;-1.04;100.00;101836.03;5189944;28;20029;-77
2022/01/21 02:42:58;;;;;;;7.65;1.65;;;;;;;-1.04;100.00;101838.59;5184651;28;20109;-78
2022/01/21 02:45:29;;;;;;;8.85;1.90;;;;;;;-0.94;100.00;101838.03;5187595;28;20033;-78
2022/01/21 02:48:00;;;;;;;5.88;1.58;;;;;;;-0.89;100.00;101846.75;5187235;28;20568;-78
2022/01/21 02:50:31;;;;;;;13.15;1.55;;;;;;;-0.95;100.00;101857.69;5185009;28;20033;-78
2022/01/21 02:53:24;;;;;;;8.30;1.70;;;;;;;-0.87;100.00;101855.38;5188087;28;20026;-77
2022/01/21 02:55:54;;;;;;;12.32;2.28;;;;;;;-0.90;100.00;101861.28;5188704;28;20624;-78
2022/01/21 02:58:25;;;;;;;8.80;2.08;;;;;;;-0.92;100.00;101862.06;5185752;28;20064;-77
2022/01/21 03:00:56;;;;;;;8.07;1.70;;;;;;;-0.88;100.00;101869.03;5183165;28;20083;-77
2022/01/21 03:03:26;;;;;;;11.70;1.85;;;;;;;-0.80;100.00;101867.56;5191825;28;20034;-77
2022/01/21 03:05:56;;;;;;;13.25;1.50;;;;;;;-0.84;100.00;101868.28;5186866;28;20040;-80
2022/01/21 03:08:27;;;;;;;9.32;1.42;;;;;;;-0.81;100.00;101861.56;5187581;28;20104;-79
2022/01/21 03:10:58;;;;;;;10.65;2.20;;;;;;;-0.77;100.00;101862.50;5191058;28;20496;-78
2022/01/21 03:13:28;;;;;;;7.88;2.05;;;;;;;-0.84;100.00;101855.47;5187640;28;20060;-78
2022/01/21 03:15:59;;;;;;;8.63;2.22;;;;;;;-0.75;100.00;101861.75;5193544;28;20017;-79
2022/01/21 03:18:29;;;;;;;11.45;2.15;;;;;;;-0.67;100.00;101861.97;5186882;28;20068;-79
2022/01/21 03:21:00;;;;;;;11.07;2.53;;;;;;;-0.68;100.00;101868.81;5190382;28;20025;-79
2022/01/21 03:23:31;;;;;;;14.18;2.22;;;;;;;-0.81;100.00;101865.81;5191708;28;20099;-79
2022/01/21 03:26:01;;;;;;;11.20;2.67;;;;;;;-0.75;100.00;101861.75;5194041;28;20047;-80
2022/01/21 03:28:31;;;;;;;11.52;2.15;;;;;;;-0.96;100.00;101865.34;5186151;28;20041;-78
2022/01/21 03:31:01;;;;;;;7.38;2.03;;;;;;;-0.82;100.00;101876.91;5186584;28;20438;-80
2022/01/21 03:33:32;;;;;;;10.57;2.30;;;;;;;-0.99;100.00;101871.25;5191467;28;20038;-79
2022/01/21 03:36:05;;;;;;;10.23;1.80;;;;;;;-1.07;100.00;101872.69;5192989;28;20059;-78
2022/01/21 03:38:36;;;;;;;9.40;2.03;;;;;;;-1.00;100.00;101874.66;5192245;28;20029;-79
2022/01/21 03:41:07;;;;;;;11.27;2.70;;;;;;;-0.94;100.00;101873.94;5189452;28;20045;-78
2022/01/21 03:43:37;;;;;;;9.15;1.80;;;;;;;-0.90;100.00;101873.25;5190160;28;20033;-79
2022/01/21 03:46:08;;;;;;;10.10;2.17;;;;;;;-0.91;100.00;101876.63;5192628;28;20033;-78
2022/01/21 03:48:38;;;;;;;14.52;2.15;;;;;;;-0.85;100.00;101870.00;5187260;28;20258;-80
2022/01/21 03:51:08;;;;;;;8.82;1.70;;;;;;;-0.85;100.00;101871.69;5191487;28;20116;-79
2022/01/21 03:53:38;;;;;;;8.18;1.50;;;;;;;-0.76;100.00;101864.28;5182113;28;20037;-78
2022/01/21 03:56:09;;;;;;;13.38;2.22;;;;;;;-0.49;100.00;101860.84;5189321;28;20483;-77
2022/01/21 03:58:39;;;;;;;9.05;2.17;;;;;;;-0.47;100.00;101858.28;5184807;28;20105;-78
2022/01/21 04:01:09;;;;;;;8.00;2.10;;;;;;;-0.34;100.00;101857.81;5181699;28;20048;-78
2022/01/21 04:03:40;;;;;;;7.55;2.10;;;;;;;-0.31;100.00;101860.47;5187385;28;20387;-79
2022/01/21 04:06:10;;;;;;;4.07;1.27;;;;;;;-0.41;100.00;101859.34;5192013;28;20047;-80
2022/01/21 04:08:41;;;;;;;15.30;1.77;;;;;;;-0.32;100.00;101858.72;5192684;28;20025;-80
2022/01/21 04:11:11;;;;;;;8.57;1.98;;;;;;;-0.30;100.00;101863.09;5191833;28;20028;-80
2022/01/21 04:13:43;;;;;;;14.57;2.13;;;;;;;-0.40;100.00;101855.09;5192079;28;20395;-79
2022/01/21 04:16:13;;;;;;;9.60;1.75;;;;;;;-0.42;100.00;101843.91;5191591;28;20080;-79
2022/01/21 04:18:43;;;;;;;16.40;2.17;;;;;;;-0.31;100.00;101839.94;5192728;28;20033;-79
2022/01/21 04:21:14;;;;;;;11.55;2.05;;;;;;;-0.31;100.00;101845.94;5191364;28;20053;-78
2022/01/21 04:23:44;;;;;;;10.00;1.77;;;;;;;-0.30;100.00;101839.09;5192276;28;20037;-78
2022/01/21 04:26:14;;;;;;;10.88;1.95;;;;;;;-0.32;100.00;101845.88;5190077;28;20431;-78
2022/01/21 04:28:45;;;;;;;9.70;2.38;;;;;;;-0.23;100.00;101854.72;5185101;28;20192;-80
2022/01/21 04:31:15;;;;;;;13.10;2.63;;;;;;;-0.36;100.00;101856.91;5181511;28;20029;-79
2022/01/21 04:33:45;;;;;;;8.52;2.30;;;;;;;-0.28;100.00;101851.16;5188156;28;20111;-78
2022/01/21 04:36:16;;;;;;;9.88;2.03;;;;;;;-0.28;100.00;101856.31;5180723;28;20029;-79
2022/01/21 04:38:46;;;;;;;9.25;2.72;;;;;;;-0.30;100.00;101852.81;5192590;28;20391;-78
2022/01/21 04:41:38;;;;;;;9.65;1.73;;;;;;;-0.27;100.00;101858.03;5190205;28;20402;-78
2022/01/21 04:47:17;;;;;;;9.88;2.08;;;;;;;-0.33;100.00;101849.28;5186465;28;20477;-79
2022/01/21 04:49:48;;;;;;;16.08;2.30;;;;;;;-0.33;100.00;101854.44;5189757;28;20030;-78
2022/01/21 04:52:19;;;;;;;15.05;2.95;;;;;;;-0.43;100.00;101844.72;5191881;28;20467;-78
2022/01/21 04:54:50;;;;;;;13.00;1.83;;;;;;;-0.25;100.00;101845.25;5188494;28;20033;-79
2022/01/21 04:57:21;;;;;;;13.48;2.38;;;;;;;-0.35;100.00;101853.50;5189959;28;20560;-79
2022/01/21 04:59:51;;;;;;;12.25;2.35;;;;;;;-0.36;100.00;101847.50;5179967;28;20442;-79
2022/01/21 05:02:23;;;;;;;9.35;2.33;;;;;;;-0.21;100.00;101847.06;5178508;28;20068;-79
2022/01/21 05:04:53;;;;;;;9.00;1.67;;;;;;;-0.26;100.00;101848.63;5169529;28;20022;-78
2022/01/21 05:07:26;;;;;;;13.35;1.90;;;;;;;-0.13;100.00;101838.75;5191379;28;20051;-79
2022/01/21 05:09:56;;;;;;;10.30;2.20;;;;;;;-0.09;100.00;101837.13;5188796;28;20052;-78
2022/01/21 05:12:28;;;;;;;11.70;1.85;;;;;;;-0.10;100.00;101826.00;5192440;28;20061;-78
2022/01/21 05:17:29;;;;;;;11.30;1.83;;;;;;;-0.01;100.00;101813.38;5192429;28;20485;-79
2022/01/21 05:20:00;;;;;;;7.25;1.80;;;;;;;-0.01;100.00;101806.56;5189422;28;20045;-79
2022/01/21 05:22:30;;;;;;;10.43;1.60;;;;;;;0.01;100.00;101802.31;5191685;28;20507;-81
2022/01/21 05:25:00;;;;;;;13.05;2.28;;;;;;;0.19;100.00;101787.38;5183600;28;20442;-80
2022/01/21 05:27:30;;;;;;;11.20;1.92;;;;;;;0.30;100.00;101803.06;5186063;28;20026;-81
2022/01/21 05:30:01;;;;;;;6.93;1.50;;;;;;;0.28;100.00;101807.28;5180531;28;20484;-78
2022/01/21 05:32:31;;;;;;;11.52;1.52;;;;;;;0.33;100.00;101810.84;5185652;28;20030;-79
2022/01/21 05:35:02;;;;;;;8.88;1.70;;;;;;;0.40;100.00;101811.03;5182356;28;20024;-79
2022/01/21 05:37:32;;;;;;;7.90;2.17;;;;;;;0.36;100.00;101814.38;5189656;28;20033;-78
2022/01/21 05:40:09;;;;;;;11.80;1.83;;;;;;;0.45;100.00;101814.59;5190906;28;20059;-78
2022/01/21 05:42:40;;;;;;;17.52;2.08;;;;;;;0.49;100.00;101821.56;5190383;28;20033;-79
2022/01/21 05:48:00;;;;;;;6.68;1.60;;;;;;;0.43;100.00;101835.97;5185894;28;20348;-79
2022/01/21 05:50:30;;;;;;;14.73;2.20;;;;;;;0.49;100.00;101830.97;5191013;28;20025;-79
2022/01/21 05:53:04;;;;;;;11.10;2.55;;;;;;;0.55;100.00;101829.41;5188946;28;20112;-80
2022/01/21 05:55:40;;;;;;;14.07;1.77;;;;;;;0.62;100.00;101822.72;5181713;28;20026;-79
2022/01/21 05:58:12;;;;;;;;;;;;;;;0.65;100.00;101827.94;5186812;28;20033;-79
2022/01/21 06:00:46;;;;;;;10.32;1.52;;;;;;;0.67;100.00;101828.84;5173023;28;19920;-82
2022/01/21 06:03:16;;;;;;;10.45;2.03;;;;;;;0.67;100.00;101827.16;5179242;28;20722;-82
2022/01/21 06:05:46;;;;;;;9.75;2.25;;;;;;;0.58;100.00;101814.06;5191354;28;20034;-78
2022/01/21 06:08:18;;;;;;;13.30;2.67;;;;;;;0.69;100.00;101820.34;5188600;28;20411;-80
2022/01/21 06:10:48;;;;;;;12.30;2.53;;;;;;;0.57;100.00;101808.88;5191581;28;20495;-78
2022/01/21 06:13:19;;;;;;;13.85;1.98;;;;;;;0.69;100.00;101815.19;5187928;28;20088;-79
2022/01/21 06:15:49;;;;;;;12.10;2.08;;;;;;;0.63;100.00;101815.06;5191970;28;20091;-79
2022/01/21 06:18:19;;;;;;;13.60;1.98;;;;;;;0.78;100.00;101820.56;5188902;28;20422;-79
2022/01/21 06:20:50;;;;;;;10.50;1.85;;;;;;;0.72;100.00;101816.97;5189599;28;20037;-79
2022/01/21 06:23:20;;;;;;;13.05;1.83;;;;;;;0.67;100.00;101833.97;5187995;28;20030;-79
2022/01/21 06:25:50;;;;;;;8.98;1.90;;;;;;;0.84;100.00;101820.69;5179773;28;20057;-79
2022/01/21 06:28:21;;;;;;;15.43;2.30;;;;;;;0.82;100.00;101831.78;5185414;28;20366;-80
2022/01/21 06:30:52;;;;;;;6.13;1.63;;;;;;;0.81;100.00;101828.34;5185767;28;20559;-79
2022/01/21 06:33:22;;;;;;;6.10;2.17;;;;;;;0.73;100.00;101827.28;5189547;28;20116;-80
2022/01/21 06:35:53;;;;;;;9.77;1.65;;;;;;;0.83;100.00;101826.69;5182261;28;20021;-79
2022/01/21 06:38:24;;;;;;;6.25;1.48;;;;;;;0.84;100.00;101836.13;5189568;28;20053;-79
2022/01/21 06:40:54;;;;;;;12.00;1.75;;;;;;;0.83;100.00;101843.81;5187581;28;20025;-81
2022/01/21 06:43:25;;;;;;;7.22;1.65;;;;;;;0.90;100.00;101841.41;5182546;28;20062;-79
2022/01/21 06:45:55;;;;;;;10.05;1.42;;;;;;;0.92;100.00;101847.47;5185594;28;20373;-79
2022/01/21 06:48:26;;;;;;;7.93;1.60;;;;;;;0.94;100.00;101850.06;5186517;28;20025;-79
2022/01/21 06:50:56;;;;;;;7.78;1.75;;;;;;;0.94;100.00;101848.38;5189431;28;20434;-78
2022/01/21 06:53:26;;;;;;;7.05;1.50;;;;;;;0.95;100.00;101847.56;5195186;28;20029;-78
2022/01/21 06:55:56;;;;;;;12.57;1.80;;;;;;;0.93;100.00;101846.63;5187067;28;20128;-79
2022/01/21 06:58:27;;;;;;;3.40;1.20;;;;;;;0.99;100.00;101841.63;5173005;28;20559;-79
2022/01/21 07:00:57;;;;;;;10.20;1.67;;;;;;;1.03;100.00;101847.72;5187562;28;20029;-79
2022/01/21 07:03:27;;;;;;;7.88;1.65;;;;;;;1.03;100.00;101848.59;5191905;28;20045;-79
2022/01/21 07:05:59;;;;;;;6.05;1.70;;;;;;;0.95;100.00;101844.97;5194071;28;20022;-79
2022/01/21 07:08:33;;;;;;;9.20;2.15;;;;;;;1.00;100.00;101845.06;5192468;28;20045;-79
2022/01/21 07:11:03;;;;;;;12.32;2.30;;;;;;;0.95;100.00;101854.38;5184498;28;20029;-79
2022/01/21 07:13:34;;;;;;;6.40;1.42;;;;;;;0.98;100.00;101855.34;5192555;28;20498;-77
2022/01/21 07:16:05;;;;;;;11.15;2.47;;;;;;;1.01;100.00;101850.25;5194102;28;20025;-77
2022/01/21 07:18:35;;;;;;;13.48;2.38;;;;;;;1.06;100.00;101868.38;5192697;28;20044;-79
2022/01/21 07:21:05;;;;;;;11.13;1.92;;;;;;;1.09;100.00;101868.44;5193350;28;20201;-78
2022/01/21 07:23:36;;;;;;;11.30;2.13;;;;;;;0.96;100.00;101862.16;5192993;28;20038;-78
2022/01/21 07:26:06;;;;;;;6.13;1.63;;;;;;;1.02;100.00;101843.38;5185384;28;20435;-79
2022/01/21 07:28:36;;;;;;;12.48;2.00;;;;;;;0.99;100.00;101835.59;5182812;28;20061;-78
2022/01/21 07:31:07;;;;;;;14.20;1.90;;;;;;;0.96;100.00;101831.28;5186602;28;20075;-78
2022/01/21 07:33:38;;;;;;;11.38;2.05;;;;;;;1.04;100.00;101836.59;5189623;28;20145;-78
2022/01/21 07:36:08;;;;;;;10.57;2.05;;;;;;;1.07;100.00;101845.25;5193081;28;20100;-79
2022/01/21 07:38:40;;;;;;;9.63;2.10;;;;;;;1.04;100.00;101855.47;5193206;28;20110;-78
2022/01/21 07:41:10;;;;;;;6.20;1.80;;;;;;;1.07;100.00;101855.53;5192601;28;20026;-79
2022/01/21 07:43:41;;;;;;;11.50;1.80;;;;;;;1.05;100.00;101864.94;5187420;28;20032;-81
2022/01/21 07:46:11;;;;;;;9.00;1.88;;;;;;;1.12;100.00;101864.25;5188975;28;20114;-79
2022/01/21 07:48:42;;;;;;;11.77;2.38;;;;;;;1.16;100.00;101844.56;5191308;28;20033;-78
2022/01/21 07:51:12;;;;;;;10.77;2.28;;;;;;;1.25;100.00;101857.66;5193599;28;20118;-78
2022/01/21 07:53:42;;;;;;;12.57;2.15;;;;;;;1.45;100.00;101844.41;5191998;28;20038;-77
2022/01/21 07:56:12;;;;;;;10.30;2.10;;;;;;;1.40;100.00;101845.97;5193462;28;20029;-79
2022/01/21 07:58:43;;;;;;;9.23;2.08;;;;;;;1.60;100.00;101839.53;5185278;28;20680;-80
2022/01/21 08:01:13;;;;;;;8.20;1.80;;;;;;;1.91;100.00;101836.75;5186572;28;20105;-78
2022/01/21 08:03:44;;;;;;;9.95;2.08;;;;;;;1.88;100.00;101844.41;5193024;28;20021;-78
2022/01/21 08:06:14;;;;;;;10.25;1.98;;;;;;;1.88;100.00;101828.97;5192107;28;20014;-78
2022/01/21 08:08:44;;;;;;;11.50;1.88;;;;;;;1.93;100.00;101840.22;5193254;28;20320;-79
2022/01/21 08:11:15;;;;;;;7.63;2.10;;;;;;;1.71;100.00;101843.22;5194558;28;20033;-80
2022/01/21 08:13:45;;;;;;;11.30;2.50;;;;;;;1.68;100.00;101843.16;5191026;28;20026;-80
2022/01/21 08:16:16;;;;;;;16.30;3.20;;;;;;;1.75;100.00;101850.16;5183551;28;20029;-79
2022/01/21 08:18:46;;;;;;;12.10;3.58;;;;;;;1.79;100.00;101846.84;5190829;28;20430;-79
2022/01/21 08:21:19;;;;;;;18.02;5.82;;;;;;;1.81;100.00;101850.31;5193515;28;20072;-78
2022/01/21 08:23:52;;;;;;;12.77;3.65;;;;;;;1.82;100.00;101852.91;5184308;28;20029;-81
2022/01/21 08:26:25;;;;;;;16.42;4.40;;;;;;;1.89;100.00;101859.94;5186439;28;20034;-79
2022/01/21 08:28:59;;;;;;;13.98;4.13;;;;;;;1.87;100.00;101853.88;5186315;28;20088;-79
2022/01/21 08:31:29;;;;;;;11.07;3.00;;;;;;;1.88;100.00;101862.47;5179525;28;20036;-78
2022/01/21 08:33:59;;;;;;;14.02;4.03;;;;;;;1.77;100.00;101874.25;5197503;28;20377;-78
2022/01/21 08:36:30;;;;;;;11.32;5.13;;;;;;;1.81;100.00;101882.09;5193527;28;20309;-80
2022/01/21 08:39:00;;;;;;;14.82;4.93;;;;;;;1.87;100.00;101876.19;5191036;28;20510;-80
2022/01/21 08:41:31;;;;;;;15.00;5.07;;;;;;;1.97;100.00;101878.97;5192497;28;20048;-81
2022/01/21 08:44:01;;;;;;;16.73;6.15;;;;;;;2.08;100.00;101880.06;5190796;28;20395;-79
2022/01/21 08:46:31;;;;;;;14.88;6.18;;;;;;;2.05;100.00;101886.84;5192410;28;20033;-80
2022/01/21 08:49:07;;;;;;;16.17;5.30;;;;;;;2.00;100.00;101891.06;5183577;28;20030;-80
2022/01/21 08:51:53;;;;;;;17.48;5.60;;;;;;;1.95;100.00;101898.69;5189483;28;20033;-80
2022/01/21 08:54:24;;;;;;;11.23;3.35;;;;;;;2.01;100.00;101900.53;5187112;28;20029;-78
2022/01/21 08:56:56;;;;;;;13.38;4.28;;;;;;;2.08;100.00;101894.66;5189225;28;20527;-79
2022/01/21 08:59:26;;;;;;;16.35;3.47;;;;;;;2.11;100.00;101895.59;5182550;28;20389;-78
2022/01/21 09:02:05;;;;;;;6.22;2.45;;;;;;;2.24;100.00;101907.00;5191072;28;20033;-81
2022/01/21 09:04:36;;;;;;;9.30;2.53;;;;;;;2.35;100.00;101906.34;5209528;28;20047;-81
2022/01/21 09:07:06;;;;;;;7.53;2.60;;;;;;;2.40;100.00;101906.44;5225291;28;20035;-81
2022/01/21 09:09:37;;;;;;;10.15;2.97;;;;;;;2.44;100.00;101913.41;5226969;28;20021;-81
2022/01/21 09:12:07;;;;;;;8.70;2.25;;;;;;;2.50;100.00;101918.69;5227150;28;20047;-82
2022/01/21 09:14:37;;;;;;;7.55;1.90;;;;;;;2.54;100.00;101915.31;5226949;28;20611;-82
2022/01/21 09:17:08;;;;;;;5.03;1.95;;;;;;;2.61;100.00;101907.72;5230024;28;20059;-83
2022/01/21 09:19:38;;;;;;;6.43;2.58;;;;;;;2.76;100.00;101920.00;5201304;28;20482;-82
2022/01/21 09:22:08;;;;;;;8.15;1.92;;;;;;;2.85;100.00;101913.28;5214080;28;20025;-83
2022/01/21 09:24:39;;;;;;;4.38;2.28;;;;;;;2.80;100.00;101916.63;5224779;28;20045;-83
2022/01/21 09:27:09;;;;;;;6.50;2.30;;;;;;;2.72;100.00;101910.47;5203127;28;20017;-83
2022/01/21 09:29:41;;;;;;;8.18;2.33;;;;;;;2.81;100.00;101920.94;5201789;28;20478;-80
2022/01/21 09:32:11;;;;;;;8.52;2.50;;;;;;;2.83;100.00;101924.44;5226262;28;20055;-79
2022/01/21 09:34:42;;;;;;;6.97;2.20;;;;;;;2.87;100.00;101916.75;5209590;28;20063;-80
2022/01/21 09:37:12;;;;;;;17.25;6.00;;;;;;;3.02;100.00;101919.59;5211061;28;20482;-80
2022/01/21 09:39:43;;;;;;;11.15;3.25;;;;;;;2.93;100.00;101916.00;5227885;28;20024;-80
2022/01/21 09:42:14;;;;;;;6.35;3.17;;;;;;;2.87;100.00;101914.16;5209555;28;20033;-80
2022/01/21 09:44:45;;;;;;;11.48;2.17;;;;;;;2.82;100.00;101914.97;5210099;28;20538;-80
2022/01/21 09:47:18;;;;;;;11.20;2.60;;;;;;;2.76;100.00;101925.16;5224896;28;20037;-80
2022/01/21 09:49:49;;;;;;;14.88;3.00;;;;;;;2.73;100.00;101930.28;5197248;28;20442;-80
2022/01/21 09:52:21;;;;;;;14.73;2.70;;;;;;;2.88;100.00;101933.13;5227399;28;20036;-79
2022/01/21 09:54:53;;;;;;;8.48;2.30;;;;;;;2.94;100.00;101928.06;5227665;28;20017;-79
2022/01/21 09:57:23;;;;;;;10.95;2.10;;;;;;;3.03;100.00;101933.38;5217516;28;20513;-80
2022/01/21 09:59:55;;;;;;;8.27;2.00;;;;;;;3.00;100.00;101925.59;5198066;28;20029;-79
2022/01/21 10:02:27;;;;;;;11.15;2.78;;;;;;;2.88;100.00;101927.97;5224800;28;20033;-80
2022/01/21 10:04:59;;;;;;;4.93;1.77;;;;;;;2.70;100.00;101937.97;5207269;28;20561;-80
2022/01/21 10:07:30;;;;;;;13.48;4.22;;;;;;;2.95;100.00;101942.69;5226180;28;20032;-79
2022/01/21 10:10:07;;;;;;;11.57;2.63;;;;;;;3.06;100.00;101934.28;5226546;28;20025;-79
2022/01/21 10:12:43;;;;;;;6.88;2.25;;;;;;;3.25;100.00;101932.88;5207758;28;20082;-80
2022/01/21 10:15:15;;;;;;;9.63;2.42;;;;;;;3.13;100.00;101940.41;5224615;28;20399;-80
2022/01/21 10:17:59;;;;;;;7.57;2.03;;;;;;;3.32;100.00;101937.28;5220792;28;20025;-78
2022/01/21 10:20:29;;;;;;;9.13;2.47;;;;;;;3.45;100.00;101941.78;5193473;28;20505;-80
2022/01/21 10:23:04;;;;;;;7.13;1.73;;;;;;;3.43;100.00;101952.13;5206392;28;20033;-79
2022/01/21 10:25:37;;;;;;;8.10;2.05;;;;;;;3.29;100.00;101932.06;5227119;28;20255;-80
2022/01/21 10:28:22;;;;;;;8.40;1.92;;;;;;;3.33;100.00;101942.47;5222932;28;20033;-80
2022/01/21 10:31:14;;;;;;;7.40;1.88;;;;;;;3.23;100.00;101940.59;5206381;28;20223;-79
2022/01/21 10:33:52;;;;;;;5.35;1.48;;;;;;;3.10;100.00;101943.84;5227548;28;20033;-79
2022/01/21 10:36:29;;;;;;;6.82;1.70;;;;;;;3.17;100.00;101952.56;5209609;28;20108;-80
2022/01/21 10:39:11;;;;;;;11.55;2.08;;;;;;;3.09;100.00;101948.97;5203423;28;20020;-78
2022/01/21 10:41:44;;;;;;;10.05;2.10;;;;;;;3.17;100.00;101948.25;5227122;28;20052;-80
2022/01/21 10:44:17;;;;;;;6.07;1.70;;;;;;;3.29;100.00;101957.91;5210209;28;20029;-80
2022/01/21 10:47:11;;;;;;;3.63;1.40;;;;;;;3.45;100.00;101962.47;5227232;28;20088;-79
2022/01/21 10:49:43;;;;;;;6.68;1.75;;;;;;;3.45;100.00;101962.47;5198174;28;20021;-79
2022/01/21 10:52:15;;;;;;;7.32;1.98;;;;;;;3.37;100.00;101964.06;5208358;28;20289;-78
2022/01/21 10:54:51;;;;;;;6.90;2.53;;;;;;;3.34;100.00;101966.63;5232059;28;20029;-81
2022/01/21 10:57:21;;;;;;;5.05;1.52;;;;;;;3.33;100.00;101965.72;5211993;28;20032;-81
2022/01/21 11:00:09;;;;;;;6.22;1.85;;;;;;;3.33;100.00;101967.47;5201482;28;20013;-79
2022/01/21 11:02:53;;;;;;;5.90;1.75;;;;;;;3.43;100.00;101971.91;5202205;28;20065;-80
2022/01/21 11:05:32;;;;;;;17.95;8.60;;;;;;;3.53;100.00;101966.91;5209897;28;20040;-80
2022/01/21 11:08:07;;;;;;;9.98;4.38;;;;;;;3.64;100.00;101975.69;5231789;28;20465;-80
2022/01/21 11:10:51;;;;;;;15.68;5.57;;;;;;;3.64;98.93;101968.78;5213812;28;20035;-80
2022/01/21 11:13:22;;;;;;;6.50;2.80;;;;;;;3.70;98.44;101968.91;5230946;28;20537;-80
2022/01/21 11:15:57;;;;;;;8.98;2.97;;;;;;;3.63;99.03;101963.63;5232621;28;20028;-80
2022/01/21 11:18:29;;;;;;;9.30;1.77;;;;;;;3.69;98.46;101962.00;5202399;28;20024;-80
2022/01/21 11:21:06;;;;;;;5.15;1.60;;;;;;;3.68;98.79;101965.44;5227832;28;20017;-80
2022/01/21 11:23:38;;;;;;;7.88;1.30;;;;;;;3.56;98.50;101963.50;5226572;28;20293;-79
2022/01/21 11:26:09;;;;;;;6.25;1.48;;;;;;;3.62;98.34;101962.72;5222390;28;20022;-81
2022/01/21 11:28:50;;;;;;;8.52;1.50;;;;;;;3.73;98.48;101963.75;5204981;28;20120;-81
2022/01/21 11:31:23;;;;;;;7.47;1.70;;;;;;;3.79;97.63;101965.56;5217194;28;20044;-81
2022/01/21 11:33:54;;;;;;;8.93;1.58;;;;;;;3.71;98.22;101965.47;5209131;28;20083;-81
2022/01/21 11:36:26;;;;;;;6.28;1.55;;;;;;;3.87;98.75;101959.66;5232282;28;20050;-81
2022/01/21 11:38:58;;;;;;;9.43;1.60;;;;;;;4.02;98.84;101952.09;5232650;28;20052;-79
2022/01/21 11:41:29;;;;;;;6.50;1.60;;;;;;;4.03;97.66;101948.66;5207225;28;20113;-80
2022/01/21 11:44:01;;;;;;;10.43;3.10;;;;;;;3.93;98.05;101956.28;5206221;28;20056;-80
2022/01/21 11:49:15;;;;;;;6.55;2.10;;;;;;;3.72;97.04;101946.53;5231625;28;20090;-80
2022/01/21 11:51:45;;;;;;;7.15;2.05;;;;;;;3.62;98.34;101944.63;5218284;28;20120;-80
2022/01/21 11:54:25;;;;;;;8.77;1.75;;;;;;;3.62;97.78;101947.22;5212527;28;20051;-79
2022/01/21 11:57:02;;;;;;;11.02;2.10;;;;;;;3.82;96.95;101953.53;5207581;28;20029;-80
2022/01/21 12:02:27;;;;;;;6.15;1.55;;;;;;;3.61;97.37;101955.81;5228122;28;20048;-81
2022/01/21 12:05:01;;;;;;;6.13;1.38;;;;;;;3.54;97.83;101947.09;5224720;28;20048;-79
2022/01/21 12:07:40;;;;;;;5.60;1.50;;;;;;;3.47;98.58;101943.56;5230773;28;20391;-80
2022/01/21 12:10:38;;;;;;;7.72;1.50;;;;;;;3.47;98.67;101934.94;5213792;28;20221;-80
2022/01/21 12:13:21;;;;;;;8.93;1.73;;;;;;;3.58;98.20;101930.78;5209119;28;20056;-80
2022/01/21 12:18:42;;;;;;;9.35;1.60;;;;;;;3.56;98.80;101923.00;5225315;28;20027;-80
2022/01/21 12:21:34;;;;;;;7.75;1.60;;;;;;;3.66;98.17;101922.28;5206768;28;20108;-80
2022/01/21 12:24:05;;;;;;;6.63;1.52;;;;;;;3.73;98.29;101918.94;5227104;28;20021;-80
2022/01/21 12:26:52;;;;;;;10.00;1.23;;;;;;;3.74;98.48;101924.13;5232404;28;20115;-80
2022/01/21 12:29:24;;;;;;;5.95;1.35;;;;;;;3.83;98.83;101932.03;5221970;28;20035;-80
2022/01/21 12:32:06;;;;;;;6.05;1.50;;;;;;;3.87;99.00;101928.63;5225705;28;20036;-80
2022/01/21 12:34:57;;;;;;;6.55;1.75;;;;;;;3.91;100.00;101925.22;5218697;28;20021;-80
2022/01/21 12:40:37;;;;;;;5.70;1.52;;;;;;;3.76;100.00;101916.41;5213983;28;20078;-80